»·PEaware :: USC243 KMRY-KLAS

USC243 :: KMRY-KLAS

FLIGHT INFORMATION

Flight Status: Arrived
Operator: Unknown
More flights by this operator :: More flights under this callsign
Pilot: Andy P. (22680)
Aircraft: GATES LEARJET LEARJET 35/36
(LJ35)
More flights by this aircraft type
Origin: KMRY Monterey Peninsula
United States
Destination: KLAS McCarran Intl
United States
More flights between these airports :: More routes between these airports
Route: +MRY5 SNS PXN NTELL FUZZY SUNST4
File this flight plan on PilotEdge
Remarks:
Altitude:
(Current/Filed)
39,000ft
Speed:
(Current/Filed)
465kts
Departed: 19-May-19 08:09 AM
Arrived: 19-May-19 09:09 AM
Distance/Time
Traveled:
326nm/0:59
Distance/Time
To Go:
Arrived

Flight Plot

Page will automatically refresh every two minutes.

Flight plan parsing failed; only flown route is shown


Map Options




Map Legend


Flown Route
Filed Route
Departure Airport
Arrival Airport
Navaid (VOR, NDB)
Fix

Horizontal Profiles

Position Reports

Time Latitude Longitude Heading Altitude Ground
Speed
19-May-19 07:49 36.589217 -121.858547 343 208ft 0kts
19-May-19 07:50 36.589217 -121.858547 343 208ft 0kts
19-May-19 07:51 36.589217 -121.858547 343 208ft 0kts
19-May-19 07:52 36.589217 -121.858547 343 208ft 0kts
19-May-19 07:53 36.589217 -121.858547 343 208ft 0kts
19-May-19 07:54 36.589217 -121.858547 343 208ft 0kts
19-May-19 07:55 36.589217 -121.858547 343 208ft 0kts
19-May-19 07:56 36.589217 -121.858547 343 208ft 0kts
19-May-19 07:57 36.589217 -121.858547 343 208ft 0kts
19-May-19 07:58 36.589217 -121.858547 343 208ft 0kts
19-May-19 07:59 36.589217 -121.858547 343 208ft 0kts
19-May-19 08:00 36.589217 -121.858547 343 208ft 0kts
19-May-19 08:01 36.589217 -121.858547 343 208ft 0kts
19-May-19 08:02 36.589217 -121.858547 343 208ft 0kts
19-May-19 08:03 36.589217 -121.858547 343 208ft 0kts
19-May-19 08:04 36.589217 -121.858547 343 208ft 0kts
19-May-19 08:05 36.589218 -121.858548 343 208ft 0kts
19-May-19 08:06 36.589876 -121.855848 307 208ft 13kts
19-May-19 08:07 36.590262 -121.856740 335 208ft 0kts
19-May-19 08:08 36.587539 -121.845962 116 272ft 153kts
19-May-19 08:09 36.609762 -121.805823 347 5993ft 246kts
19-May-19 08:10 36.692445 -121.829044 337 7331ft 324kts
19-May-19 08:11 36.777454 -121.840477 41 12331ft 307kts
19-May-19 08:12 36.770831 -121.733683 116 17773ft 372kts
19-May-19 08:13 36.700599 -121.635828 137 18974ft 385kts
19-May-19 08:14 36.672784 -121.507736 98 18908ft 379kts
19-May-19 08:15 36.676646 -121.380913 89 20209ft 324kts
19-May-19 08:16 36.687194 -121.261045 87 22609ft 397kts
19-May-19 08:17 36.694803 -121.110408 86 25461ft 460kts
19-May-19 08:18 36.705304 -120.946535 86 28478ft 487kts
19-May-19 08:19 36.718388 -120.776363 79 31411ft 494kts
19-May-19 08:20 36.750964 -120.610077 73 34143ft 494kts
19-May-19 08:21 36.785535 -120.444604 74 36601ft 492kts
19-May-19 08:22 36.819804 -120.279441 74 38695ft 493kts
19-May-19 08:23 36.855066 -120.108197 74 38899ft 515kts
19-May-19 08:24 36.889475 -119.935541 80 38896ft 512kts
19-May-19 08:25 36.878999 -119.760768 103 38898ft 505kts
19-May-19 08:26 36.851953 -119.588090 103 38900ft 510kts
19-May-19 08:27 36.824072 -119.413850 103 38901ft 514kts
19-May-19 08:28 36.795743 -119.238994 104 38896ft 514kts
19-May-19 08:29 36.767160 -119.064362 104 38895ft 513kts
19-May-19 08:30 36.738320 -118.889945 104 38866ft 513kts
19-May-19 08:31 36.709258 -118.715808 104 38822ft 513kts
19-May-19 08:32 36.679867 -118.541357 105 38819ft 513kts
19-May-19 08:33 36.650342 -118.367775 105 38819ft 514kts
19-May-19 08:34 36.620411 -118.193442 105 38819ft 514kts
19-May-19 08:35 36.590285 -118.019564 105 38824ft 515kts
19-May-19 08:36 36.559840 -117.845422 106 38592ft 511kts
19-May-19 08:37 36.529724 -117.674625 106 36557ft 496kts
19-May-19 08:38 36.500378 -117.509795 107 34632ft 484kts
19-May-19 08:39 36.471131 -117.346955 107 32752ft 479kts
19-May-19 08:40 36.442192 -117.187014 107 30902ft 469kts
19-May-19 08:41 36.413800 -117.031363 108 29102ft 455kts
19-May-19 08:42 36.386038 -116.880390 108 27355ft 443kts
19-May-19 08:44 36.358603 -116.732445 108 25648ft 442kts
19-May-19 08:45 36.329911 -116.579065 108 23876ft 471kts
19-May-19 08:46 36.299958 -116.419402 108 22021ft 464kts
19-May-19 08:47 36.271559 -116.269339 108 20280ft 433kts
19-May-19 08:48 36.244912 -116.129596 108 18658ft 395kts
19-May-19 08:49 36.221055 -116.005265 109 17207ft 344kts
19-May-19 08:50 36.197946 -115.893660 114 15914ft 328kts
19-May-19 08:51 36.165074 -115.789308 117 14940ft 324kts
19-May-19 08:52 36.131934 -115.686372 117 13958ft 316kts
19-May-19 08:53 36.099924 -115.587250 117 13010ft 302kts
19-May-19 08:54 36.071691 -115.500132 116 12182ft 294kts
19-May-19 08:55 36.041184 -115.406237 116 11293ft 289kts
19-May-19 08:56 36.027011 -115.311316 99 10242ft 278kts
19-May-19 08:57 36.019774 -115.218204 99 9163ft 267kts
19-May-19 08:58 36.013725 -115.130993 98 8391ft 245kts
19-May-19 08:59 36.008330 -115.048048 98 7920ft 232kts
19-May-19 09:00 36.003630 -114.969527 98 8041ft 241kts
19-May-19 09:00 35.999475 -114.899884 98 8043ft 246kts
19-May-19 09:02 36.014018 -114.805201 35 7157ft 266kts
19-May-19 09:03 36.068295 -114.829857 286 5710ft 221kts
19-May-19 09:03 36.074119 -114.889732 267 5111ft 205kts
19-May-19 09:04 36.073745 -114.959362 263 4555ft 197kts
19-May-19 09:06 36.073874 -115.031619 262 3613ft 158kts
19-May-19 09:06 36.073928 -115.072880 263 2972ft 130kts
19-May-19 09:07 36.073692 -115.116077 263 2336ft 124kts
19-May-19 09:08 36.073664 -115.142526 276 2184ft 31kts
19-May-19 09:09 36.076834 -115.146550 359 2184ft 17kts
19-May-19 09:10 36.078269 -115.141749 90 2184ft 26kts
19-May-19 09:11 36.078261 -115.131339 89 2184ft 35kts
19-May-19 09:12 36.082358 -115.126441 358 2184ft 21kts
19-May-19 09:13 36.082943 -115.125788 95 2184ft 0kts
19-May-19 09:14 36.082943 -115.125788 95 2184ft 0kts
19-May-19 09:15 36.082943 -115.125788 95 2184ft 0kts
19-May-19 09:16 36.082943 -115.125788 95 2184ft 0kts
19-May-19 09:17 36.082943 -115.125788 95 2184ft 0kts
19-May-19 09:18 36.082943 -115.125788 95 2184ft 0kts
19-May-19 09:19 36.082943 -115.125788 95 2184ft 0kts
19-May-19 09:20 36.082943 -115.125788 95 2184ft 0kts
19-May-19 09:21 36.082943 -115.125788 95 2184ft 0kts
19-May-19 09:22 36.082943 -115.125788 95 2184ft 0kts

Navigation Log

Ident Type
Flight plan parsing failed, navigation log unavailable